createdAt,value
2019-02-19T00:01:16.713Z,51.47
2019-02-19T00:03:48.236Z,50.47
2019-02-19T00:06:18.328Z,48.77
2019-02-19T00:08:48.523Z,47.17
2019-02-19T00:11:18.521Z,46.43
2019-02-19T00:13:48.680Z,47.83
2019-02-19T00:16:18.905Z,47.58
2019-02-19T00:18:49.091Z,49.07
2019-02-19T00:21:19.171Z,47.87
2019-02-19T00:23:49.311Z,49.73
2019-02-19T00:26:19.613Z,50.73
2019-02-19T00:28:49.649Z,47.80
2019-02-19T00:31:19.618Z,50.90
2019-02-19T00:33:49.744Z,50.67
2019-02-19T00:36:21.519Z,52.50
2019-02-19T00:38:51.536Z,47.43
2019-02-19T00:41:21.773Z,49.70
2019-02-19T00:43:51.796Z,49.70
2019-02-19T00:46:21.865Z,49.20
2019-02-19T00:48:52.053Z,49.33
2019-02-19T00:51:22.212Z,47.87
2019-02-19T00:53:52.241Z,48.63
2019-02-19T00:56:22.436Z,46.50
2019-02-19T00:58:52.623Z,46.93
2019-02-19T01:01:22.787Z,45.63
2019-02-19T01:03:53.038Z,46.17
2019-02-19T01:06:23.176Z,45.20
2019-02-19T01:08:53.266Z,44.37
2019-02-19T01:11:24.273Z,45.57
2019-02-19T01:13:55.817Z,49.00
2019-02-19T01:16:26.156Z,51.83
2019-02-19T01:18:56.216Z,48.97
2019-02-19T01:21:26.365Z,49.17
2019-02-19T01:23:56.541Z,48.87
2019-02-19T01:26:27.588Z,47.70
2019-02-19T01:28:58.361Z,45.00
2019-02-19T01:31:28.424Z,43.13
2019-02-19T01:33:58.545Z,42.97
2019-02-19T01:36:28.602Z,45.43
2019-02-19T01:38:58.759Z,45.33
2019-02-19T01:41:30.817Z,46.33
2019-02-19T01:44:00.879Z,45.63
2019-02-19T01:46:30.935Z,44.47
2019-02-19T01:49:01.028Z,44.40
2019-02-19T01:51:32.160Z,42.93
2019-02-19T01:54:02.196Z,44.57
2019-02-19T01:56:32.291Z,45.80
2019-02-19T01:59:02.246Z,44.23
2019-02-19T02:01:32.337Z,43.10
2019-02-19T02:04:02.349Z,45.77
2019-02-19T02:06:32.397Z,44.20
2019-02-19T02:09:03.202Z,45.90
2019-02-19T02:11:34.197Z,45.30
2019-02-19T02:14:04.196Z,47.70
2019-02-19T02:16:34.397Z,43.17
2019-02-19T02:19:04.537Z,45.77
2019-02-19T02:21:34.759Z,44.50
2019-02-19T02:24:04.997Z,45.90
2019-02-19T02:26:36.900Z,47.33
2019-02-19T02:29:08.050Z,46.43
2019-02-19T02:31:38.069Z,47.20
2019-02-19T02:34:07.997Z,48.67
2019-02-19T02:36:38.078Z,46.60
2019-02-19T02:39:08.129Z,45.47
2019-02-19T02:41:38.217Z,47.13
2019-02-19T02:44:08.176Z,46.93
2019-02-19T02:46:38.339Z,46.73
2019-02-19T02:49:08.450Z,44.97
2019-02-19T02:51:39.857Z,47.30
2019-02-19T02:54:09.810Z,48.23
2019-02-19T02:56:41.799Z,44.70
2019-02-19T02:59:11.850Z,45.53
2019-02-19T03:01:41.905Z,47.70
2019-02-19T03:04:11.937Z,50.77
2019-02-19T03:07:01.138Z,50.70
2019-02-19T03:09:31.318Z,50.00
2019-02-19T03:12:01.377Z,48.20
2019-02-19T03:14:31.369Z,46.40
2019-02-19T03:17:01.397Z,45.97
2019-02-19T03:19:31.363Z,48.23
2019-02-19T03:22:01.631Z,49.63
2019-02-19T03:24:31.886Z,49.50
2019-02-19T03:27:02.018Z,48.70
2019-02-19T03:29:32.249Z,50.87
2019-02-19T03:32:02.298Z,50.63
2019-02-19T03:34:32.500Z,49.23
2019-02-19T03:37:02.771Z,50.73
2019-02-19T03:39:32.891Z,49.03
2019-02-19T03:42:03.057Z,49.80
2019-02-19T03:44:33.261Z,49.97
2019-02-19T03:47:03.543Z,49.67
2019-02-19T03:49:33.723Z,46.87
2019-02-19T03:52:03.830Z,49.73
2019-02-19T03:54:34.118Z,49.63
2019-02-19T03:57:04.640Z,47.60
2019-02-19T03:59:34.949Z,48.93
2019-02-19T04:02:06.907Z,47.13
2019-02-19T04:04:36.963Z,46.30
2019-02-19T04:07:08.062Z,48.00
2019-02-19T04:09:38.115Z,47.33
2019-02-19T04:12:08.217Z,48.73
2019-02-19T04:14:38.257Z,46.10
2019-02-19T04:17:08.302Z,46.23
2019-02-19T04:19:38.333Z,46.43
2019-02-19T04:22:08.330Z,48.47
2019-02-19T04:24:38.371Z,47.50
2019-02-19T04:27:08.348Z,46.60
2019-02-19T04:29:38.446Z,45.43
2019-02-19T04:32:08.470Z,44.37
2019-02-19T04:34:38.700Z,47.37
2019-02-19T04:37:08.896Z,48.67
2019-02-19T04:39:39.065Z,51.40
2019-02-19T04:42:10.896Z,52.67
2019-02-19T04:44:40.939Z,56.77
2019-02-19T04:47:11.970Z,49.13
2019-02-19T04:49:42.150Z,50.90
2019-02-19T04:52:13.542Z,51.93
2019-02-19T04:54:43.617Z,51.27
2019-02-19T04:57:14.097Z,52.27
2019-02-19T04:59:44.156Z,51.97
2019-02-19T05:02:14.284Z,48.60
2019-02-19T05:04:46.299Z,50.33
2019-02-19T05:07:17.456Z,55.10
2019-02-19T05:09:47.658Z,52.37
2019-02-19T05:12:18.937Z,53.40
2019-02-19T05:14:49.102Z,55.00
2019-02-19T05:17:19.171Z,56.10
2019-02-19T05:19:49.089Z,55.50
2019-02-19T05:22:20.165Z,55.30
2019-02-19T05:24:50.409Z,63.53
2019-02-19T05:27:20.558Z,60.40
2019-02-19T05:29:50.589Z,65.33
2019-02-19T05:32:20.584Z,66.80
2019-02-19T05:34:50.690Z,64.73
2019-02-19T05:37:20.941Z,65.57
2019-02-19T05:39:51.103Z,63.50
2019-02-19T05:42:21.277Z,63.67
2019-02-19T05:44:51.284Z,62.00
2019-02-19T05:47:21.276Z,61.00
2019-02-19T05:49:51.349Z,59.23
2019-02-19T05:52:21.526Z,62.17
2019-02-19T05:54:51.762Z,63.00
2019-02-19T05:57:21.837Z,61.63
2019-02-19T05:59:52.191Z,60.03
2019-02-19T06:02:22.286Z,60.03
2019-02-19T06:04:52.264Z,60.47
2019-02-19T06:07:23.889Z,63.27
2019-02-19T06:09:53.918Z,62.33
2019-02-19T06:12:23.958Z,61.73
2019-02-19T06:14:54.427Z,66.63
2019-02-19T06:17:24.719Z,63.97
2019-02-19T06:19:54.837Z,62.40
2019-02-19T06:22:24.901Z,64.40
2019-02-19T06:24:54.957Z,62.60
2019-02-19T06:27:24.928Z,65.53
2019-02-19T06:29:55.017Z,65.43
2019-02-19T06:32:26.111Z,62.83
2019-02-19T06:34:56.098Z,65.47
2019-02-19T06:37:26.182Z,65.90
2019-02-19T06:39:57.140Z,64.57
2019-02-19T06:42:27.186Z,65.57
2019-02-19T06:44:57.254Z,68.03
2019-02-19T06:47:27.274Z,65.77
2019-02-19T06:49:57.650Z,63.20
2019-02-19T06:52:27.679Z,67.00
2019-02-19T06:54:57.715Z,69.20
2019-02-19T06:57:28.716Z,70.93
2019-02-19T06:59:59.917Z,68.50
2019-02-19T07:02:39.138Z,71.57
2019-02-19T07:05:14.269Z,69.07
2019-02-19T07:07:44.389Z,64.67
2019-02-19T07:10:14.477Z,65.00
2019-02-19T07:12:45.610Z,65.23
2019-02-19T07:15:16.747Z,62.87
2019-02-19T07:17:46.964Z,61.57
2019-02-19T07:20:17.030Z,64.13
2019-02-19T07:22:47.147Z,56.70
2019-02-19T07:25:17.225Z,54.33
2019-02-19T07:27:48.298Z,53.17
2019-02-19T07:30:18.284Z,54.13
2019-02-19T07:32:48.480Z,52.47
2019-02-19T07:35:18.493Z,50.27
2019-02-19T07:37:48.528Z,43.83
2019-02-19T07:40:18.621Z,43.50
2019-02-19T07:42:48.777Z,46.65
2019-02-19T07:45:18.973Z,43.63
2019-02-19T07:47:49.189Z,40.80
2019-02-19T07:50:19.376Z,42.25
2019-02-19T07:52:49.356Z,38.63
2019-02-19T07:55:20.933Z,29.18
2019-02-19T07:57:51.118Z,34.60
2019-02-19T08:00:21.444Z,35.40
2019-02-19T08:02:51.513Z,36.27
2019-02-19T08:05:21.949Z,38.37
2019-02-19T08:07:52.018Z,31.00
2019-02-19T08:10:22.220Z,35.67
2019-02-19T08:12:52.308Z,25.75
2019-02-19T08:15:22.444Z,35.65
2019-02-19T08:17:52.677Z,34.95
2019-02-19T08:20:22.949Z,37.40
2019-02-19T08:22:54.130Z,34.73
2019-02-19T08:25:24.330Z,33.78
2019-02-19T08:27:56.264Z,36.63
2019-02-19T08:30:26.030Z,31.37
2019-02-19T08:32:55.985Z,32.70
2019-02-19T08:35:26.378Z,32.85
2019-02-19T08:37:56.593Z,32.05
2019-02-19T08:40:26.717Z,33.20
2019-02-19T08:42:56.825Z,33.73
2019-02-19T08:45:26.937Z,30.48
2019-02-19T08:47:58.488Z,26.25
2019-02-19T08:50:28.503Z,31.25
2019-02-19T08:52:58.533Z,28.52
2019-02-19T08:55:28.684Z,26.60
2019-02-19T08:57:58.822Z,27.62
2019-02-19T09:00:30.664Z,26.48
2019-02-19T09:03:00.898Z,27.58
2019-02-19T09:05:31.009Z,27.73
2019-02-19T09:08:01.126Z,26.25
2019-02-19T09:10:32.135Z,26.40
2019-02-19T09:13:02.419Z,24.50
2019-02-19T09:15:32.490Z,26.25
2019-02-19T09:18:02.584Z,20.72
2019-02-19T09:20:32.597Z,23.38
2019-02-19T09:23:02.711Z,23.38
2019-02-19T09:25:32.827Z,23.92
2019-02-19T09:28:03.790Z,23.62
2019-02-19T09:30:34.938Z,23.62
2019-02-19T09:33:05.140Z,25.45
2019-02-19T09:35:35.256Z,23.87
2019-02-19T09:38:06.757Z,23.98
2019-02-19T09:40:36.903Z,25.30
2019-02-19T09:43:06.905Z,21.62
2019-02-19T09:45:36.949Z,21.70
2019-02-19T09:48:07.050Z,22.90
2019-02-19T09:50:37.166Z,21.55
2019-02-19T09:53:10.933Z,17.05
2019-02-19T09:55:41.079Z,23.95
2019-02-19T09:58:11.087Z,20.25
2019-02-19T10:00:41.209Z,24.05
2019-02-19T10:03:11.503Z,25.05
2019-02-19T10:05:41.713Z,20.88
2019-02-19T10:08:11.878Z,19.92
2019-02-19T10:10:42.154Z,22.60
2019-02-19T10:13:12.289Z,21.37
2019-02-19T10:15:43.116Z,18.35
2019-02-19T10:18:14.171Z,21.85
2019-02-19T10:20:44.483Z,21.12
2019-02-19T10:23:14.609Z,20.10
2019-02-19T10:25:44.760Z,19.90
2019-02-19T10:28:15.017Z,19.02
2019-02-19T10:30:46.911Z,21.10
2019-02-19T10:33:17.209Z,18.52
2019-02-19T10:35:47.748Z,18.62
2019-02-19T10:38:18.109Z,19.40
2019-02-19T10:40:48.498Z,21.37
2019-02-19T10:43:18.795Z,19.40
2019-02-19T10:45:49.072Z,19.10
2019-02-19T10:48:19.473Z,20.50
2019-02-19T10:50:49.552Z,19.20
2019-02-19T10:53:21.853Z,20.02
2019-02-19T10:55:52.673Z,12.82
2019-02-19T10:58:23.436Z,20.00
2019-02-19T11:00:53.731Z,20.12
2019-02-19T11:03:23.974Z,20.05
2019-02-19T11:05:54.304Z,20.80
2019-02-19T11:08:24.462Z,18.48
2019-02-19T11:10:54.620Z,19.05
2019-02-19T11:13:24.852Z,16.87
2019-02-19T11:15:55.076Z,17.55
2019-02-19T11:18:28.514Z,18.90
2019-02-19T11:20:57.029Z,18.37
2019-02-19T11:23:27.023Z,19.37
2019-02-19T11:25:57.169Z,18.25
2019-02-19T11:28:27.270Z,19.45
2019-02-19T11:30:57.522Z,17.52
2019-02-19T11:33:27.733Z,18.25
2019-02-19T11:35:57.870Z,17.10
2019-02-19T11:38:28.033Z,18.10
2019-02-19T11:40:58.134Z,17.80
2019-02-19T11:43:28.228Z,17.65
2019-02-19T11:45:58.410Z,19.95
2019-02-19T11:48:36.590Z,17.15
2019-02-19T11:51:00.298Z,18.20
2019-02-19T11:53:30.574Z,16.48
2019-02-19T11:56:00.625Z,17.10
2019-02-19T11:58:30.777Z,17.98
2019-02-19T12:01:01.559Z,15.68
2019-02-19T12:03:32.770Z,19.48
2019-02-19T12:06:02.839Z,17.20
2019-02-19T12:08:38.766Z,18.40
2019-02-19T12:11:04.829Z,19.00
2019-02-19T12:13:35.098Z,20.00
2019-02-19T12:16:05.293Z,17.42
2019-02-19T12:18:36.566Z,17.62
2019-02-19T12:21:08.118Z,19.17
2019-02-19T12:23:38.329Z,17.77
2019-02-19T12:26:08.656Z,17.90
2019-02-19T12:28:38.974Z,17.92
2019-02-19T12:31:09.100Z,14.95
2019-02-19T12:33:39.287Z,16.75
2019-02-19T12:36:09.672Z,16.23
2019-02-19T12:38:39.957Z,16.52
2019-02-19T12:41:10.117Z,15.72
2019-02-19T12:43:41.189Z,16.77
2019-02-19T12:46:11.408Z,16.67
2019-02-19T12:48:41.618Z,15.75
2019-02-19T12:51:11.633Z,14.98
2019-02-19T12:53:41.741Z,12.25
2019-02-19T12:56:11.876Z,14.28
2019-02-19T12:58:42.033Z,14.68
2019-02-19T13:01:12.238Z,16.35
2019-02-19T13:04:03.903Z,14.53
2019-02-19T13:06:34.677Z,14.95
2019-02-19T13:09:06.038Z,15.18
2019-02-19T13:11:54.664Z,16.05
2019-02-19T13:14:28.536Z,14.35
2019-02-19T13:17:10.738Z,14.65
2019-02-19T13:19:42.820Z,14.10
2019-02-19T13:22:12.851Z,13.75
2019-02-19T13:24:44.036Z,12.65
2019-02-19T13:27:14.151Z,13.62
2019-02-19T13:29:44.351Z,13.53
2019-02-19T13:32:14.485Z,10.90
2019-02-19T13:34:44.545Z,14.33
2019-02-19T13:37:14.670Z,13.53
2019-02-19T13:39:44.839Z,11.18
2019-02-19T13:42:15.075Z,14.73
2019-02-19T13:44:45.120Z,12.60
2019-02-19T13:47:15.103Z,13.30
2019-02-19T13:49:45.118Z,13.18
2019-02-19T13:52:23.462Z,13.55
2019-02-19T13:54:57.974Z,14.43
2019-02-19T13:57:27.972Z,14.40
2019-02-19T14:00:00.145Z,14.15
2019-02-19T14:02:30.734Z,12.15
2019-02-19T14:05:01.121Z,17.07
2019-02-19T14:07:32.979Z,15.30
2019-02-19T14:10:05.149Z,12.47
2019-02-19T14:12:35.397Z,16.25
2019-02-19T14:15:24.930Z,15.43
2019-02-19T14:17:55.229Z,16.05
2019-02-19T14:20:35.472Z,15.58
2019-02-19T14:23:17.900Z,16.27
2019-02-19T14:26:07.118Z,15.53
2019-02-19T14:28:56.170Z,16.10
2019-02-19T14:31:36.705Z,16.62
2019-02-19T14:34:25.779Z,17.07
2019-02-19T14:37:09.301Z,14.87
2019-02-19T14:39:52.537Z,15.85
2019-02-19T14:42:41.730Z,16.25
2019-02-19T14:45:31.070Z,16.00
2019-02-19T14:48:22.103Z,17.25
2019-02-19T14:51:11.317Z,16.35
2019-02-19T14:54:00.405Z,15.65
2019-02-19T14:56:43.198Z,17.70
2019-02-19T14:59:32.317Z,17.75
2019-02-19T15:02:21.494Z,18.67
2019-02-19T15:05:10.700Z,17.15
2019-02-19T15:07:56.580Z,18.62
2019-02-19T15:10:36.668Z,18.75
2019-02-19T15:13:14.471Z,18.85
2019-02-19T15:16:03.660Z,20.43
2019-02-19T15:18:52.738Z,19.90
2019-02-19T15:21:41.922Z,19.05
2019-02-19T15:24:31.072Z,18.05
2019-02-19T15:27:09.130Z,19.85
2019-02-19T15:29:58.368Z,19.60
2019-02-19T15:32:47.532Z,18.02
2019-02-19T15:35:36.776Z,18.62
2019-02-19T15:38:23.077Z,17.80
2019-02-19T15:41:12.299Z,22.52
2019-02-19T15:43:52.579Z,21.73
2019-02-19T15:46:29.497Z,20.35
2019-02-19T15:49:18.597Z,18.95
2019-02-19T15:52:08.055Z,19.60
2019-02-19T15:54:48.457Z,18.32
2019-02-19T15:57:37.719Z,19.60
2019-02-19T16:00:27.258Z,17.65
2019-02-19T16:03:05.902Z,18.32
2019-02-19T16:05:55.119Z,18.60
2019-02-19T16:08:33.669Z,19.20
2019-02-19T16:11:13.344Z,21.17
2019-02-19T16:13:55.478Z,20.77
2019-02-19T16:16:55.585Z,20.72
2019-02-19T16:19:41.270Z,19.60
2019-02-19T16:22:30.506Z,19.30
2019-02-19T16:25:17.023Z,19.30
2019-02-19T16:28:06.150Z,21.25
2019-02-19T16:31:00.889Z,19.52
2019-02-19T16:34:12.899Z,21.07
2019-02-19T16:36:58.027Z,17.92
2019-02-19T16:39:55.752Z,19.62
2019-02-19T16:42:45.267Z,20.08
2019-02-19T16:45:36.698Z,21.75
2019-02-19T16:48:40.415Z,22.95
2019-02-19T16:51:31.555Z,22.13
2019-02-19T16:54:15.722Z,21.57
2019-02-19T16:57:28.902Z,22.07
2019-02-19T17:00:15.142Z,21.87
2019-02-19T17:03:14.658Z,20.45
2019-02-19T17:06:13.339Z,20.15
2019-02-19T17:09:12.100Z,21.80
2019-02-19T17:11:57.689Z,21.73
2019-02-19T17:15:00.535Z,21.27
2019-02-19T17:17:50.888Z,19.30
2019-02-19T17:20:46.188Z,21.85
2019-02-19T17:23:41.124Z,22.30
2019-02-19T17:26:33.993Z,22.20
2019-02-19T17:29:37.683Z,23.35
2019-02-19T17:32:29.124Z,24.55
2019-02-19T17:35:28.069Z,23.60
2019-02-19T17:38:14.716Z,21.55
2019-02-19T17:41:08.750Z,23.50
2019-02-19T17:43:50.463Z,22.15
2019-02-19T17:46:47.308Z,22.85
2019-02-19T17:49:45.790Z,23.27
2019-02-19T17:52:40.872Z,21.40
2019-02-19T17:55:30.791Z,21.48
2019-02-19T17:58:23.824Z,23.02
2019-02-19T18:01:07.269Z,22.02
2019-02-19T18:03:54.128Z,24.72
2019-02-19T18:06:40.047Z,23.47
2019-02-19T18:09:40.012Z,23.18
2019-02-19T18:12:31.915Z,22.67
2019-02-19T18:15:21.245Z,23.30
2019-02-19T18:18:14.959Z,24.60
2019-02-19T18:20:55.981Z,24.90
2019-02-19T18:23:27.868Z,24.27
2019-02-19T18:26:03.762Z,25.75
2019-02-19T18:28:35.832Z,24.70
2019-02-19T18:31:07.294Z,24.12
2019-02-19T18:33:47.278Z,24.47
2019-02-19T18:36:38.192Z,25.62
2019-02-19T18:39:25.884Z,25.15
2019-02-19T18:42:00.101Z,25.00
2019-02-19T18:44:30.251Z,26.57
2019-02-19T18:47:00.599Z,26.05
2019-02-19T18:49:32.250Z,25.70
2019-02-19T18:52:02.764Z,25.00
2019-02-19T18:55:09.114Z,26.15
2019-02-19T19:04:32.136Z,26.00
2019-02-19T19:10:48.229Z,28.50
2019-02-19T19:22:52.809Z,24.40
2019-02-19T19:25:28.693Z,24.60
2019-02-19T19:28:02.167Z,22.37
2019-02-19T19:30:32.791Z,24.00
2019-02-19T19:33:04.579Z,23.07
2019-02-19T19:35:35.848Z,25.85
2019-02-19T19:38:06.159Z,20.90
2019-02-19T19:40:48.297Z,21.20
2019-02-19T19:43:25.623Z,20.92
2019-02-19T19:45:58.930Z,20.05
2019-02-19T19:48:37.973Z,19.20
2019-02-19T19:51:21.331Z,18.87
2019-02-19T19:53:58.337Z,18.42
2019-02-19T19:56:37.204Z,17.17
2019-02-19T19:59:17.007Z,17.80
2019-02-19T20:01:47.385Z,19.75
2019-02-19T20:04:19.429Z,20.10
2019-02-19T20:06:49.668Z,18.35
2019-02-19T20:09:22.935Z,18.02
2019-02-19T20:11:53.448Z,17.82
2019-02-19T20:14:27.265Z,18.57
2019-02-19T20:17:01.519Z,19.62
2019-02-19T20:19:33.222Z,20.52
2019-02-19T20:22:04.032Z,19.35
2019-02-19T20:24:37.471Z,21.80
2019-02-19T20:27:10.855Z,21.95
2019-02-19T20:29:43.852Z,23.65
2019-02-19T20:32:18.127Z,24.37
2019-02-19T20:34:50.662Z,23.27
2019-02-19T20:37:23.129Z,23.15
2019-02-19T20:39:53.495Z,24.92
2019-02-19T20:42:23.810Z,23.73
2019-02-19T20:45:01.524Z,26.57
2019-02-19T20:47:34.767Z,24.45
2019-02-19T20:50:10.104Z,23.27
2019-02-19T20:52:43.604Z,24.10
2019-02-19T20:55:16.945Z,24.67
2019-02-19T20:57:49.822Z,26.27
2019-02-19T21:00:20.106Z,27.42
2019-02-19T21:02:51.022Z,26.87
2019-02-19T21:05:22.063Z,25.97
2019-02-19T21:07:52.261Z,26.00
2019-02-19T21:10:25.758Z,24.47
2019-02-19T21:12:56.944Z,26.85
2019-02-19T21:15:27.845Z,26.65
2019-02-19T21:17:58.167Z,25.30
2019-02-19T21:20:30.132Z,25.23
2019-02-19T21:23:00.880Z,26.23
2019-02-19T21:25:31.605Z,26.00
2019-02-19T21:28:01.860Z,26.05
2019-02-19T21:30:35.932Z,25.25
2019-02-19T21:33:08.771Z,26.10
2019-02-19T21:35:43.211Z,26.55
2019-02-19T21:38:16.573Z,24.60
2019-02-19T21:40:47.018Z,23.67
2019-02-19T21:43:17.555Z,26.02
2019-02-19T21:45:48.720Z,24.60
2019-02-19T21:48:19.234Z,22.42
2019-02-19T21:50:49.784Z,24.92
2019-02-19T21:53:20.454Z,23.35
2019-02-19T21:55:50.730Z,23.65
2019-02-19T21:58:21.314Z,22.80
2019-02-19T22:00:52.694Z,22.13
2019-02-19T22:03:28.844Z,19.57
2019-02-19T22:06:00.779Z,20.77
2019-02-19T22:08:31.297Z,20.85
2019-02-19T22:11:01.943Z,19.25
2019-02-19T22:13:31.976Z,22.17
2019-02-19T22:16:02.226Z,20.52
2019-02-19T22:18:32.462Z,19.70
2019-02-19T22:21:15.791Z,20.32
2019-02-19T22:23:46.432Z,19.40
2019-02-19T22:26:16.449Z,19.57
2019-02-19T22:28:46.617Z,20.52
2019-02-19T22:31:16.927Z,19.27
2019-02-19T22:33:47.218Z,19.70
2019-02-19T22:36:17.754Z,22.23
2019-02-19T22:38:49.993Z,19.02
2019-02-19T22:41:20.906Z,19.05
2019-02-19T22:43:51.151Z,19.73
2019-02-19T22:46:22.147Z,20.72
2019-02-19T22:48:52.279Z,21.02
2019-02-19T22:51:22.837Z,19.57
2019-02-19T22:54:01.848Z,21.42
2019-02-19T22:56:37.051Z,20.02
2019-02-19T22:59:07.295Z,22.65
2019-02-19T23:04:23.045Z,22.50
2019-02-19T23:06:54.419Z,22.73
2019-02-19T23:09:24.883Z,22.35
2019-02-19T23:11:56.539Z,23.12
2019-02-19T23:14:26.816Z,22.27
2019-02-19T23:16:56.998Z,23.85
2019-02-19T23:19:27.217Z,21.50
2019-02-19T23:21:57.300Z,22.48
2019-02-19T23:24:27.388Z,24.27
2019-02-19T23:26:57.529Z,20.77
2019-02-19T23:29:27.856Z,21.35
2019-02-19T23:31:58.137Z,22.10
2019-02-19T23:34:28.241Z,23.60
2019-02-19T23:37:06.061Z,21.45
2019-02-19T23:39:43.434Z,21.48
2019-02-19T23:42:08.297Z,19.80
2019-02-19T23:44:38.632Z,23.10
2019-02-19T23:47:08.757Z,22.95
2019-02-19T23:49:38.759Z,19.73
2019-02-19T23:52:09.043Z,20.12
2019-02-19T23:54:39.150Z,22.15
2019-02-19T23:57:09.553Z,20.30
2019-02-19T23:59:40.838Z,21.77
